ENRS/RET METAR and TAF weather

Enter ICAO airport designator
Station Type Date Time Source
ENRS METAR 2021/03/07 19:20 UTC NOAA

ENRS 071920Z 19008KT 9999 -SHSN FEW008 SCT030 00/M02 Q1017


Station Type Date Time Source
ENRS Decoded METAR 2021/03/07 19:20 UTC NOAA

Rost Flyplass, Norway (ENRS) 67-31N 012-06E
Mar 07, 2021 - 02:20 PM EST / 2021.03.07 1920 UTC
Wind: from the S (190 degrees) at 9 MPH (8 KT):0
Visibility: greater than 7 mile(s):0
Sky conditions: partly cloudy
Weather: light snow showers
Temperature: 32 F (0 C)
Windchill: 24 F (-4 C):1
Dew Point: 28 F (-2 C)
Relative Humidity: 86%
Pressure (altimeter): 30.03 in. Hg (1017 hPa)
ob: ENRS 071920Z 19008KT 9999 -SHSN FEW008 SCT030 00/M02 Q1017
cycle: 19

Station Type Date Time Source
ENRS TAF UTC NOAA

Error!

Example: see airport list